Time;durP1;ratioP1;P1;durP2;ratioP2;P2;SDS_P1;SDS_P2;PMS_P1;PMS_P2;Temp;Humidity;BMP_temperature;BMP_pressure;BME280_temperature;BME280_humidity;BME280_pressure;Samples;Min_cycle;Max_cycle;Signal;HPM_P1;HPM_P2
2022/07/30 00:01:06;;;;;;;0.70;0.70;;;17.70;70.20;;;;;;4824654;29;20042;-81
2022/07/30 00:03:32;;;;;;;0.70;0.70;;;17.60;70.40;;;;;;4808278;29;20038;-82
2022/07/30 00:05:58;;;;;;;0.60;0.60;;;17.60;70.50;;;;;;4778370;29;20043;-82
2022/07/30 00:08:24;;;;;;;2.83;1.08;;;17.50;70.60;;;;;;4824661;29;20039;-82
2022/07/30 00:10:50;;;;;;;1.38;0.77;;;17.60;70.80;;;;;;4778256;29;20037;-83
2022/07/30 00:13:17;;;;;;;1.10;0.82;;;17.60;71.00;;;;;;4824861;29;20043;-82
2022/07/30 00:15:43;;;;;;;0.93;0.77;;;17.50;71.10;;;;;;4793079;29;20130;-83
2022/07/30 00:18:09;;;;;;;0.65;0.57;;;17.50;71.30;;;;;;4807912;29;20139;-82
2022/07/30 00:20:35;;;;;;;1.00;0.85;;;17.60;71.50;;;;;;4789650;29;20091;-83
2022/07/30 00:23:03;;;;;;;0.70;0.70;;;17.50;71.50;;;;;;4789705;29;20500;-82
2022/07/30 00:25:29;;;;;;;1.00;0.70;;;17.40;71.70;;;;;;4804749;29;20035;-82
2022/07/30 00:27:55;;;;;;;0.68;0.68;;;17.50;71.80;;;;;;4775083;29;20450;-83
2022/07/30 00:30:21;;;;;;;0.80;0.52;;;17.50;71.90;;;;;;4790029;29;20039;-82
2022/07/30 00:32:47;;;;;;;1.42;1.00;;;17.50;72.10;;;;;;4804506;29;20046;-82
2022/07/30 00:35:13;;;;;;;0.60;0.60;;;17.40;72.10;;;;;;4789556;29;20039;-81
2022/07/30 00:37:39;;;;;;;0.70;0.60;;;17.40;72.30;;;;;;4789594;29;20034;-83
2022/07/30 00:40:07;;;;;;;1.45;0.77;;;17.50;72.50;;;;;;4789851;29;20466;-82
2022/07/30 00:42:39;;;;;;;0.95;0.82;;;17.30;72.60;;;;;;4804739;29;20043;-82
2022/07/30 00:45:07;;;;;;;1.17;0.90;;;17.30;72.80;;;;;;4792488;29;20077;-82
2022/07/30 00:47:33;;;;;;;1.92;0.80;;;17.20;72.90;;;;;;4806985;29;20073;-83
2022/07/30 00:49:58;;;;;;;1.02;0.90;;;17.30;73.10;;;;;;4807726;29;20038;-82
2022/07/30 00:52:24;;;;;;;1.50;1.00;;;17.30;73.20;;;;;;4792589;29;20102;-82
2022/07/30 00:54:50;;;;;;;1.73;0.93;;;17.20;73.30;;;;;;4807741;29;20106;-83
2022/07/30 00:57:16;;;;;;;1.95;0.85;;;17.30;73.50;;;;;;4806182;29;20046;-82
2022/07/30 00:59:41;;;;;;;0.52;0.50;;;17.30;73.60;;;;;;4824142;29;20379;-81
2022/07/30 01:02:07;;;;;;;0.63;0.60;;;17.20;73.60;;;;;;4792091;29;20051;-82
2022/07/30 01:04:33;;;;;;;1.20;0.93;;;17.20;73.70;;;;;;4807563;29;20050;-83
2022/07/30 01:06:59;;;;;;;1.10;0.73;;;17.10;73.70;;;;;;4777748;29;20031;-83
2022/07/30 01:09:25;;;;;;;1.10;0.82;;;17.20;73.90;;;;;;4824418;29;20505;-83
2022/07/30 01:11:50;;;;;;;0.68;0.68;;;17.30;74.10;;;;;;4806522;29;20051;-81
2022/07/30 01:14:16;;;;;;;0.70;0.70;;;17.20;74.10;;;;;;4792415;29;20035;-82
2022/07/30 01:16:42;;;;;;;0.90;0.70;;;17.20;74.10;;;;;;4807588;29;20133;-82
2022/07/30 01:22:11;;;;;;;0.55;0.55;;;17.20;74.40;;;;;;4810301;29;20054;-83
2022/07/30 01:24:43;;;;;;;0.65;0.65;;;17.20;74.40;;;;;;4823741;29;20046;-84
2022/07/30 01:27:12;;;;;;;0.68;0.60;;;17.20;74.50;;;;;;4777582;29;20077;-83
2022/07/30 01:29:39;;;;;;;0.95;0.77;;;17.10;74.50;;;;;;4823950;29;20094;-83
2022/07/30 01:32:07;;;;;;;0.75;0.70;;;17.10;74.70;;;;;;4777260;29;20469;-83
2022/07/30 01:34:36;;;;;;;0.88;0.60;;;17.10;74.70;;;;;;4824047;29;20043;-83
2022/07/30 01:37:04;;;;;;;0.50;0.50;;;17.10;74.80;;;;;;4792257;29;20125;-83
2022/07/30 01:39:30;;;;;;;0.65;0.50;;;17.20;74.90;;;;;;4788642;29;20070;-83
2022/07/30 01:41:58;;;;;;;1.20;0.50;;;17.10;74.90;;;;;;4803778;29;20054;-83
2022/07/30 01:44:25;;;;;;;0.80;0.80;;;17.00;74.90;;;;;;4805286;29;20120;-83
2022/07/30 01:46:54;;;;;;;0.50;0.50;;;17.10;75.10;;;;;;4805248;29;20179;-83
2022/07/30 01:49:22;;;;;;;0.65;0.60;;;17.10;75.20;;;;;;4804204;29;20046;-83
2022/07/30 01:51:49;;;;;;;0.65;0.60;;;17.10;75.30;;;;;;4805564;29;20452;-84
2022/07/30 01:54:17;;;;;;;1.40;0.65;;;17.00;75.20;;;;;;4803856;29;20039;-83
2022/07/30 01:56:46;;;;;;;0.68;0.65;;;17.00;75.30;;;;;;4806847;29;20632;-83
2022/07/30 01:59:15;;;;;;;0.52;0.52;;;17.00;75.50;;;;;;4822496;29;20042;-83
2022/07/30 02:01:41;;;;;;;1.52;0.80;;;17.00;75.50;;;;;;4791835;29;20509;-84
2022/07/30 02:04:07;;;;;;;0.60;0.50;;;17.00;75.50;;;;;;4775668;29;20043;-84
2022/07/30 02:06:39;;;;;;;0.60;0.60;;;17.00;75.50;;;;;;4823609;29;20045;-84
2022/07/30 02:09:06;;;;;;;0.47;0.47;;;17.00;75.60;;;;;;4807042;29;20121;-84
2022/07/30 02:12:41;;;;;;;0.60;0.60;;;17.10;75.70;;;;;;4823402;29;20057;-84
2022/07/30 02:14:29;;;;;;;1.13;0.73;;;17.10;75.80;;;;;;4795028;29;20482;-84
2022/07/30 02:16:57;;;;;;;1.05;0.63;;;17.00;75.70;;;;;;4823325;29;20046;-84
2022/07/30 02:19:30;;;;;;;0.65;0.65;;;17.10;75.80;;;;;;4807004;29;20042;-84
2022/07/30 02:22:02;;;;;;;2.17;0.88;;;17.10;75.80;;;;;;4777032;29;20054;-84
2022/07/30 02:24:30;;;;;;;0.57;0.57;;;17.00;75.80;;;;;;4790514;29;20407;-84
2022/07/30 02:27:09;;;;;;;0.82;0.63;;;17.10;75.90;;;;;;4806866;29;20359;-84
2022/07/30 02:29:37;;;;;;;0.50;0.50;;;17.00;75.90;;;;;;4808001;29;20038;-84
2022/07/30 02:32:08;;;;;;;0.50;0.50;;;17.00;75.80;;;;;;4776619;29;20105;-84
2022/07/30 02:34:37;;;;;;;0.60;0.60;;;17.10;75.90;;;;;;4806476;29;20046;-84
2022/07/30 02:37:05;;;;;;;0.63;0.55;;;17.10;75.90;;;;;;4806292;29;20061;-84
2022/07/30 02:39:34;;;;;;;1.85;1.00;;;17.20;76.00;;;;;;4806130;29;20047;-84
2022/07/30 02:42:01;;;;;;;1.27;0.75;;;17.20;76.10;;;;;;4805649;29;20039;-84
2022/07/30 02:44:28;;;;;;;0.73;0.50;;;17.20;76.10;;;;;;4818077;29;20505;-85
2022/07/30 02:46:56;;;;;;;0.57;0.50;;;17.10;76.10;;;;;;4803280;29;20509;-84
2022/07/30 02:49:23;;;;;;;0.60;0.60;;;17.20;76.30;;;;;;4788414;29;20042;-84
2022/07/30 02:51:50;;;;;;;0.82;0.70;;;17.20;76.30;;;;;;4802833;29;20528;-84
2022/07/30 02:54:18;;;;;;;0.80;0.80;;;17.10;76.30;;;;;;4802968;29;20113;-84
2022/07/30 02:56:48;;;;;;;0.98;0.80;;;17.10;76.40;;;;;;4788370;29;20739;-84
2022/07/30 02:59:16;;;;;;;2.45;1.00;;;17.10;76.50;;;;;;4788078;29;20051;-85
2022/07/30 03:01:44;;;;;;;1.30;1.02;;;17.10;76.60;;;;;;4773186;29;20039;-84
2022/07/30 03:04:11;;;;;;;2.00;1.35;;;17.00;77.30;;;;;;4804767;29;20051;-84
2022/07/30 03:06:39;;;;;;;2.38;1.10;;;17.00;76.80;;;;;;4822131;29;20398;-84
2022/07/30 03:09:06;;;;;;;1.33;1.13;;;17.00;77.00;;;;;;4791358;29;20075;-84
2022/07/30 03:11:33;;;;;;;1.10;1.00;;;17.00;77.20;;;;;;4808700;29;20061;-84
2022/07/30 03:13:59;;;;;;;1.83;1.08;;;16.90;77.30;;;;;;4825767;29;20062;-83
2022/07/30 03:16:27;;;;;;;2.45;1.30;;;16.80;77.50;;;;;;4809611;29;20141;-83
2022/07/30 03:18:53;;;;;;;1.85;1.10;;;16.80;77.60;;;;;;4828904;29;20043;-84
2022/07/30 03:21:24;;;;;;;1.52;1.00;;;16.80;77.80;;;;;;4810121;29;20039;-84
2022/07/30 03:23:53;;;;;;;1.77;1.20;;;16.70;77.90;;;;;;4780696;29;20116;-84
2022/07/30 03:26:21;;;;;;;1.85;1.10;;;16.70;78.00;;;;;;4825651;29;20125;-84
2022/07/30 03:28:48;;;;;;;1.00;0.90;;;16.70;78.20;;;;;;4809841;29;20039;-85
2022/07/30 03:31:15;;;;;;;0.82;0.82;;;16.70;78.30;;;;;;4779249;29;20073;-85
2022/07/30 03:33:42;;;;;;;2.55;1.48;;;16.50;78.10;;;;;;4794841;29;20489;-83
2022/07/30 03:36:11;;;;;;;1.00;0.90;;;16.60;78.30;;;;;;4800497;29;20045;-83
2022/07/30 03:38:40;;;;;;;1.90;0.93;;;16.60;78.40;;;;;;4811403;29;20605;-82
2022/07/30 03:41:07;;;;;;;0.80;0.80;;;16.70;78.50;;;;;;4831758;29;20071;-83
2022/07/30 03:43:34;;;;;;;0.90;0.73;;;16.60;78.60;;;;;;4833437;29;20034;-84
2022/07/30 03:46:04;;;;;;;2.17;1.20;;;16.60;79.20;;;;;;4817947;29;20095;-83
2022/07/30 03:48:32;;;;;;;1.67;1.13;;;16.50;78.60;;;;;;4814190;29;20054;-83
2022/07/30 03:50:58;;;;;;;1.95;1.00;;;16.60;78.60;;;;;;4830463;29;20038;-83
2022/07/30 03:53:26;;;;;;;1.63;1.02;;;16.60;78.70;;;;;;4814941;29;20034;-83
2022/07/30 03:55:53;;;;;;;1.00;0.90;;;16.60;78.70;;;;;;4797263;29;20058;-82
2022/07/30 03:58:19;;;;;;;0.90;0.80;;;16.50;78.60;;;;;;4799793;29;20050;-82
2022/07/30 04:00:49;;;;;;;1.05;0.82;;;16.60;78.70;;;;;;4827113;29;20042;-83
2022/07/30 04:03:30;;;;;;;1.15;0.80;;;16.60;78.70;;;;;;4810688;29;20046;-82
2022/07/30 04:05:57;;;;;;;1.45;1.10;;;16.60;78.70;;;;;;4829763;29;20129;-83
2022/07/30 04:08:23;;;;;;;1.15;1.02;;;16.60;78.70;;;;;;4813290;29;20057;-82
2022/07/30 04:10:49;;;;;;;1.42;1.05;;;16.60;78.70;;;;;;4813147;29;20041;-83
2022/07/30 04:13:15;;;;;;;1.45;1.10;;;16.70;78.80;;;;;;4796904;29;20101;-83
2022/07/30 04:16:08;;;;;;;3.35;1.67;;;16.70;78.70;;;;;;4812922;29;20069;-82
2022/07/30 04:18:39;;;;;;;1.90;1.00;;;16.60;78.90;;;;;;4827210;29;20069;-83
2022/07/30 04:21:08;;;;;;;3.05;1.17;;;16.60;78.80;;;;;;4813871;29;20073;-82
2022/07/30 04:23:33;;;;;;;1.20;1.08;;;16.60;78.80;;;;;;4824706;29;20409;-82
2022/07/30 04:26:00;;;;;;;1.48;1.10;;;16.60;78.80;;;;;;4808612;29;20030;-83
2022/07/30 04:28:28;;;;;;;1.20;1.00;;;16.80;78.80;;;;;;4793260;29;21408;-83
2022/07/30 04:30:54;;;;;;;0.60;0.60;;;16.80;78.80;;;;;;4810392;29;20394;-82
2022/07/30 04:33:20;;;;;;;0.65;0.65;;;16.80;78.80;;;;;;4827319;29;20042;-82
2022/07/30 04:35:46;;;;;;;1.30;1.10;;;16.80;78.80;;;;;;4828837;29;20095;-83
2022/07/30 04:38:13;;;;;;;1.25;0.90;;;16.80;78.70;;;;;;4845133;29;20054;-82
2022/07/30 04:40:39;;;;;;;1.35;0.85;;;16.90;78.70;;;;;;4844344;29;20074;-81
2022/07/30 04:43:06;;;;;;;0.70;0.68;;;16.80;78.70;;;;;;4827825;29;20092;-82
2022/07/30 04:45:32;;;;;;;0.75;0.73;;;16.80;78.70;;;;;;4828304;29;20049;-82
2022/07/30 04:47:58;;;;;;;1.02;0.88;;;16.90;78.80;;;;;;4810214;29;20039;-82
2022/07/30 04:50:27;;;;;;;1.00;0.80;;;16.90;78.90;;;;;;4802642;29;20038;-82
2022/07/30 04:52:55;;;;;;;1.02;0.93;;;16.90;79.00;;;;;;4823481;29;20110;-82
2022/07/30 04:55:22;;;;;;;0.70;0.60;;;16.80;79.00;;;;;;4825620;29;20083;-82
2022/07/30 04:57:51;;;;;;;1.45;0.60;;;16.80;79.00;;;;;;4825964;29;20074;-82
2022/07/30 05:00:17;;;;;;;0.85;0.75;;;16.80;79.00;;;;;;4825215;29;20074;-82
2022/07/30 05:02:45;;;;;;;0.60;0.60;;;16.90;79.10;;;;;;4809674;29;20062;-82
2022/07/30 05:05:13;;;;;;;0.60;0.60;;;16.90;79.00;;;;;;4808666;29;20058;-82
2022/07/30 05:07:39;;;;;;;0.50;0.50;;;16.90;79.10;;;;;;4808926;29;20068;-82
2022/07/30 05:10:06;;;;;;;0.82;0.60;;;16.90;79.00;;;;;;4821368;29;20037;-82
2022/07/30 05:12:36;;;;;;;0.63;0.63;;;16.90;79.00;;;;;;4820086;29;20063;-82
2022/07/30 05:15:04;;;;;;;1.02;0.80;;;17.00;79.00;;;;;;4824649;29;20015;-82
2022/07/30 05:17:30;;;;;;;1.10;0.70;;;17.00;79.00;;;;;;4803990;29;20058;-83
2022/07/30 05:19:55;;;;;;;0.43;0.43;;;17.00;78.90;;;;;;4799810;29;20047;-82
2022/07/30 05:22:21;;;;;;;0.75;0.70;;;16.90;79.00;;;;;;4823170;29;20076;-83
2022/07/30 05:24:47;;;;;;;0.93;0.70;;;16.90;79.00;;;;;;4794021;29;20065;-83
2022/07/30 05:27:13;;;;;;;0.50;0.50;;;16.90;79.00;;;;;;4823422;29;20070;-82
2022/07/30 05:29:39;;;;;;;1.35;0.85;;;16.80;79.00;;;;;;4808959;29;20050;-83
2022/07/30 05:32:05;;;;;;;0.82;0.80;;;16.90;79.10;;;;;;4808736;29;20054;-82
2022/07/30 05:34:30;;;;;;;1.23;0.80;;;16.90;79.00;;;;;;4817128;29;20051;-82
2022/07/30 05:36:56;;;;;;;0.68;0.60;;;16.80;78.90;;;;;;4824075;29;20042;-82
2022/07/30 05:39:22;;;;;;;0.75;0.75;;;16.90;79.00;;;;;;4824349;29;20026;-82
2022/07/30 05:41:47;;;;;;;0.80;0.80;;;16.90;78.90;;;;;;4810358;29;20042;-82
2022/07/30 05:44:13;;;;;;;0.88;0.80;;;16.90;78.90;;;;;;4805479;29;20122;-82
2022/07/30 05:46:39;;;;;;;1.08;0.77;;;16.90;78.90;;;;;;4819070;29;20043;-82
2022/07/30 05:49:05;;;;;;;0.60;0.60;;;16.90;78.90;;;;;;4793574;29;20046;-82
2022/07/30 05:51:31;;;;;;;1.15;0.80;;;17.00;79.00;;;;;;4804113;29;20094;-82
2022/07/30 05:53:57;;;;;;;0.80;0.80;;;16.90;79.00;;;;;;4774541;29;20047;-81
2022/07/30 05:56:22;;;;;;;0.52;0.52;;;16.90;79.00;;;;;;4805777;29;20077;-81
2022/07/30 05:58:48;;;;;;;0.60;0.60;;;17.00;79.10;;;;;;4805006;29;20126;-84
2022/07/30 06:01:15;;;;;;;0.70;0.70;;;17.00;79.00;;;;;;4788945;29;20031;-84
2022/07/30 06:03:41;;;;;;;0.77;0.60;;;17.00;78.90;;;;;;4781833;29;20110;-84
2022/07/30 06:06:07;;;;;;;0.73;0.57;;;17.00;78.90;;;;;;4767399;30;20491;-83
2022/07/30 06:08:33;;;;;;;0.77;0.50;;;17.00;78.80;;;;;;4767491;30;20044;-82
2022/07/30 06:10:59;;;;;;;0.70;0.70;;;17.10;78.90;;;;;;4768598;30;20044;-83
2022/07/30 06:13:25;;;;;;;0.82;0.70;;;17.00;78.80;;;;;;4767421;30;20066;-83
2022/07/30 06:15:51;;;;;;;0.68;0.68;;;17.10;78.70;;;;;;4751785;30;20051;-83
2022/07/30 06:18:16;;;;;;;1.08;0.93;;;17.20;78.70;;;;;;4766775;30;20048;-84
2022/07/30 06:20:42;;;;;;;0.90;0.70;;;17.20;78.60;;;;;;4766814;30;20446;-83
2022/07/30 06:23:08;;;;;;;0.73;0.63;;;17.20;78.50;;;;;;4766502;30;20087;-83
2022/07/30 06:25:34;;;;;;;1.23;0.80;;;17.30;78.50;;;;;;4751608;30;20525;-83
2022/07/30 06:27:59;;;;;;;1.00;0.90;;;17.30;78.40;;;;;;4751971;30;20048;-83
2022/07/30 06:30:25;;;;;;;0.82;0.70;;;17.40;78.30;;;;;;4767117;30;20059;-83
2022/07/30 06:32:51;;;;;;;1.15;0.82;;;17.40;78.20;;;;;;4766754;30;20054;-84
2022/07/30 06:35:17;;;;;;;1.02;0.90;;;17.30;78.10;;;;;;4751844;30;20167;-84
2022/07/30 06:37:42;;;;;;;1.38;1.00;;;17.40;78.00;;;;;;4766368;30;20048;-85
2022/07/30 06:40:09;;;;;;;1.20;1.00;;;17.50;78.10;;;;;;4755243;29;20043;-85
2022/07/30 06:42:34;;;;;;;2.28;1.02;;;17.40;77.90;;;;;;4822622;29;20046;-85
2022/07/30 06:45:00;;;;;;;1.48;1.00;;;17.60;77.90;;;;;;4790914;29;20371;-84
2022/07/30 06:47:27;;;;;;;0.82;0.80;;;17.60;77.80;;;;;;4806336;29;20038;-82
2022/07/30 06:49:54;;;;;;;0.60;0.60;;;17.70;77.50;;;;;;4791598;29;20490;-81
2022/07/30 06:52:20;;;;;;;0.70;0.70;;;17.80;77.50;;;;;;4803397;29;20031;-83
2022/07/30 06:54:47;;;;;;;1.65;0.95;;;17.80;77.30;;;;;;4804615;29;20091;-82
2022/07/30 06:57:13;;;;;;;1.25;0.90;;;18.00;77.20;;;;;;4791172;29;20051;-81
2022/07/30 06:59:39;;;;;;;0.85;0.85;;;18.10;77.00;;;;;;4807207;29;20050;-83
2022/07/30 07:02:05;;;;;;;1.10;0.80;;;18.20;76.80;;;;;;4806346;29;20525;-83
2022/07/30 07:04:31;;;;;;;1.83;0.80;;;18.30;76.60;;;;;;4822567;29;20074;-83
2022/07/30 07:06:57;;;;;;;0.80;0.80;;;18.40;76.50;;;;;;4775484;29;20039;-83
2022/07/30 07:09:23;;;;;;;0.70;0.70;;;18.40;76.30;;;;;;4822349;29;20046;-83
2022/07/30 07:11:49;;;;;;;1.40;0.80;;;18.60;76.20;;;;;;4790975;29;20493;-85
2022/07/30 07:14:14;;;;;;;0.70;0.70;;;18.60;75.90;;;;;;4790909;29;20085;-85
2022/07/30 07:16:40;;;;;;;0.73;0.63;;;18.70;75.80;;;;;;4806067;29;20058;-85
2022/07/30 07:19:06;;;;;;;0.73;0.73;;;18.90;75.50;;;;;;4808070;29;20042;-82
2022/07/30 07:21:31;;;;;;;1.35;0.98;;;19.00;75.20;;;;;;4812546;29;20038;-80
2022/07/30 07:23:59;;;;;;;1.42;0.60;;;19.10;75.00;;;;;;4807809;29;20073;-81
2022/07/30 07:26:25;;;;;;;1.05;0.75;;;19.30;74.60;;;;;;4811477;29;20042;-80
2022/07/30 07:28:51;;;;;;;0.50;0.50;;;19.30;74.60;;;;;;4831617;29;20158;-81
2022/07/30 07:31:16;;;;;;;1.35;0.80;;;19.40;74.30;;;;;;4811137;29;20042;-81
2022/07/30 07:33:42;;;;;;;0.93;0.70;;;19.60;74.20;;;;;;4806389;29;20038;-81
2022/07/30 07:36:08;;;;;;;0.73;0.73;;;19.60;73.70;;;;;;4806925;29;20039;-81
2022/07/30 07:38:35;;;;;;;1.05;0.88;;;19.80;73.60;;;;;;4792533;29;20401;-81
2022/07/30 07:41:01;;;;;;;3.13;1.10;;;20.00;73.20;;;;;;4793454;29;20043;-81
2022/07/30 07:43:27;;;;;;;1.13;0.70;;;20.20;73.10;;;;;;4809649;29;20077;-79
2022/07/30 07:45:52;;;;;;;0.60;0.60;;;20.20;72.70;;;;;;4807755;29;20108;-81
2022/07/30 07:48:18;;;;;;;1.00;0.90;;;20.30;72.60;;;;;;4791510;29;20115;-81
2022/07/30 07:50:44;;;;;;;0.77;0.57;;;20.50;72.50;;;;;;4810484;29;20039;-80
2022/07/30 07:53:11;;;;;;;1.38;0.80;;;20.60;72.20;;;;;;4778794;29;20131;-81
2022/07/30 07:55:37;;;;;;;0.80;0.80;;;20.70;72.10;;;;;;4808512;29;20043;-81
2022/07/30 07:58:03;;;;;;;2.08;1.00;;;20.80;71.90;;;;;;4807408;29;20058;-80
2022/07/30 08:00:29;;;;;;;1.48;0.70;;;20.70;71.60;;;;;;4815201;29;20051;-80
2022/07/30 08:02:55;;;;;;;1.52;0.95;;;20.80;71.90;;;;;;4816708;29;20055;-80
2022/07/30 08:05:21;;;;;;;0.60;0.60;;;20.90;71.80;;;;;;4815811;29;20077;-80
2022/07/30 08:07:46;;;;;;;0.95;0.75;;;21.00;71.50;;;;;;4814241;29;20050;-81
2022/07/30 08:10:14;;;;;;;1.20;0.90;;;21.20;71.20;;;;;;4809196;29;20402;-80
2022/07/30 08:12:41;;;;;;;1.00;0.70;;;21.30;70.70;;;;;;4804594;29;20043;-81
2022/07/30 08:15:08;;;;;;;1.13;0.80;;;21.40;70.70;;;;;;4839078;29;20114;-80
2022/07/30 08:17:43;;;;;;;0.80;0.70;;;21.50;70.50;;;;;;4821759;29;20077;-81
2022/07/30 08:20:11;;;;;;;0.93;0.90;;;21.60;70.40;;;;;;4820898;29;20569;-80
2022/07/30 08:22:37;;;;;;;1.02;0.70;;;21.70;70.20;;;;;;4831460;29;20054;-80
2022/07/30 08:25:04;;;;;;;1.13;0.80;;;21.80;70.00;;;;;;4818448;29;20133;-80
2022/07/30 08:27:30;;;;;;;0.75;0.73;;;21.90;69.80;;;;;;4815056;29;20118;-80
2022/07/30 08:29:56;;;;;;;1.90;0.80;;;22.10;69.50;;;;;;4832408;29;20045;-80
2022/07/30 08:32:22;;;;;;;0.50;0.50;;;22.20;69.20;;;;;;4822626;29;20050;-80
2022/07/30 08:34:48;;;;;;;0.50;0.50;;;22.30;69.30;;;;;;4821448;29;20042;-79
2022/07/30 08:37:14;;;;;;;0.70;0.65;;;22.40;69.10;;;;;;4817558;29;20460;-80
2022/07/30 08:39:40;;;;;;;0.30;0.30;;;22.50;68.90;;;;;;4839755;29;20046;-79
2022/07/30 08:42:06;;;;;;;1.95;0.75;;;22.60;68.70;;;;;;4819920;29;20080;-80
2022/07/30 08:44:34;;;;;;;0.70;0.70;;;22.60;68.50;;;;;;4818175;29;20042;-79
2022/07/30 08:47:02;;;;;;;0.90;0.90;;;22.70;68.40;;;;;;4831157;29;20603;-79
2022/07/30 08:49:28;;;;;;;1.27;0.60;;;22.80;68.20;;;;;;4838246;29;20042;-79
2022/07/30 08:51:55;;;;;;;0.63;0.55;;;22.90;68.00;;;;;;4837629;29;20065;-79
2022/07/30 08:54:21;;;;;;;0.50;0.50;;;23.00;67.80;;;;;;4842418;29;20062;-79
2022/07/30 08:56:48;;;;;;;0.57;0.55;;;23.10;67.70;;;;;;4825967;29;20142;-79
2022/07/30 08:59:16;;;;;;;0.50;0.50;;;23.00;67.60;;;;;;4819920;29;20060;-79
2022/07/30 09:01:42;;;;;;;1.20;0.60;;;23.10;67.60;;;;;;4834780;29;20050;-79
2022/07/30 09:04:08;;;;;;;0.60;0.60;;;23.20;67.40;;;;;;4791317;29;20125;-79
2022/07/30 09:06:34;;;;;;;0.77;0.70;;;23.30;67.30;;;;;;4836782;29;20393;-78
2022/07/30 09:09:00;;;;;;;1.02;0.60;;;23.30;67.10;;;;;;4808208;29;20090;-79
2022/07/30 09:11:26;;;;;;;0.70;0.70;;;23.40;67.10;;;;;;4823280;29;20046;-79
2022/07/30 09:13:51;;;;;;;0.52;0.52;;;23.40;66.90;;;;;;4819890;29;20042;-79
2022/07/30 09:16:24;;;;;;;0.60;0.60;;;23.40;66.80;;;;;;4837133;29;20451;-79
2022/07/30 09:18:51;;;;;;;0.70;0.60;;;23.40;66.80;;;;;;4834273;29;20041;-79
2022/07/30 09:21:23;;;;;;;0.90;0.70;;;23.50;66.70;;;;;;4833071;29;20042;-79
2022/07/30 09:24:00;;;;;;;0.70;0.70;;;23.60;66.50;;;;;;4829791;29;20464;-79
2022/07/30 09:26:26;;;;;;;0.57;0.57;;;23.70;66.10;;;;;;4832001;29;20065;-79
2022/07/30 09:28:52;;;;;;;2.08;0.80;;;23.60;66.00;;;;;;4829265;29;20031;-80
2022/07/30 09:31:19;;;;;;;0.65;0.60;;;23.60;65.90;;;;;;4832926;29;20494;-79
2022/07/30 09:33:46;;;;;;;0.57;0.57;;;23.70;65.80;;;;;;4830823;29;20041;-79
2022/07/30 09:36:15;;;;;;;0.50;0.47;;;23.70;65.60;;;;;;4833332;29;20118;-79
2022/07/30 09:38:42;;;;;;;0.50;0.50;;;23.80;65.30;;;;;;4830293;29;20046;-79
2022/07/30 09:41:10;;;;;;;0.75;0.60;;;23.70;65.20;;;;;;4814698;29;20125;-78
2022/07/30 09:43:46;;;;;;;0.70;0.63;;;23.80;65.30;;;;;;4816913;29;20451;-78
2022/07/30 09:46:12;;;;;;;1.10;0.70;;;23.80;65.00;;;;;;4800445;29;20045;-79
2022/07/30 09:48:38;;;;;;;0.60;0.60;;;23.60;65.30;;;;;;4834492;29;20047;-79
2022/07/30 09:51:04;;;;;;;0.82;0.60;;;23.70;65.30;;;;;;4833898;29;20538;-79
2022/07/30 09:53:31;;;;;;;0.60;0.60;;;23.80;65.00;;;;;;4816819;29;20413;-79
2022/07/30 09:55:58;;;;;;;0.47;0.47;;;24.00;64.60;;;;;;4814036;29;20061;-79
2022/07/30 09:58:37;;;;;;;0.60;0.50;;;24.00;64.50;;;;;;4835671;29;20426;-79
2022/07/30 10:01:02;;;;;;;0.98;0.90;;;24.00;64.40;;;;;;4817572;29;20041;-79
2022/07/30 10:03:29;;;;;;;0.52;0.52;;;24.00;64.20;;;;;;4819331;29;20046;-78
2022/07/30 10:05:56;;;;;;;1.13;0.70;;;24.10;64.00;;;;;;4830705;29;20027;-79
2022/07/30 10:08:49;;;;;;;2.28;0.70;;;24.20;63.70;;;;;;4828850;29;20069;-78
2022/07/30 10:11:21;;;;;;;0.70;0.70;;;24.10;63.60;;;;;;4806296;29;20084;-78
2022/07/30 10:13:49;;;;;;;0.40;0.40;;;24.20;63.70;;;;;;4806922;29;20046;-79
2022/07/30 10:16:15;;;;;;;0.40;0.40;;;24.10;63.60;;;;;;4809991;29;20039;-79
2022/07/30 10:18:42;;;;;;;0.88;0.70;;;24.30;63.50;;;;;;4806034;29;20550;-78
2022/07/30 10:21:09;;;;;;;1.52;0.75;;;24.20;63.20;;;;;;4804924;29;20038;-79
2022/07/30 10:23:35;;;;;;;1.30;0.70;;;24.40;63.10;;;;;;4826749;29;20047;-80
2022/07/30 10:26:02;;;;;;;0.63;0.50;;;24.40;62.60;;;;;;4824731;29;20071;-77
2022/07/30 10:28:29;;;;;;;0.70;0.60;;;24.50;62.40;;;;;;4794311;29;20049;-80
2022/07/30 10:30:57;;;;;;;0.50;0.50;;;24.60;62.20;;;;;;4792715;29;20154;-79
2022/07/30 10:33:27;;;;;;;0.40;0.40;;;24.60;61.80;;;;;;4825046;29;20141;-78
2022/07/30 10:35:53;;;;;;;0.68;0.68;;;24.60;61.70;;;;;;4824978;29;20106;-79
2022/07/30 10:38:21;;;;;;;0.70;0.70;;;24.60;61.50;;;;;;4829936;29;20816;-79
2022/07/30 10:40:54;;;;;;;0.80;0.57;;;24.70;61.30;;;;;;4826461;29;20092;-79
2022/07/30 10:43:45;;;;;;;0.40;0.40;;;24.70;61.20;;;;;;4808170;29;20153;-79
2022/07/30 10:46:31;;;;;;;0.60;0.60;;;24.70;61.00;;;;;;4822788;29;20050;-78
2022/07/30 10:49:13;;;;;;;1.20;0.60;;;24.80;60.80;;;;;;4807927;29;20439;-79
2022/07/30 10:51:53;;;;;;;0.65;0.60;;;24.80;60.50;;;;;;4822858;29;20482;-78
2022/07/30 10:54:37;;;;;;;0.68;0.55;;;24.90;60.30;;;;;;4824587;29;20057;-80
2022/07/30 10:57:09;;;;;;;0.77;0.52;;;25.00;60.00;;;;;;4824081;29;20054;-79
2022/07/30 11:00:09;;;;;;;0.88;0.77;;;25.10;60.10;;;;;;4824144;29;20050;-79
2022/07/30 11:02:35;;;;;;;0.50;0.50;;;25.10;59.80;;;;;;4823739;29;20461;-79
2022/07/30 11:05:23;;;;;;;0.55;0.55;;;25.10;59.80;;;;;;4825164;29;20039;-80
2022/07/30 11:07:49;;;;;;;0.47;0.47;;;25.30;59.60;;;;;;4822920;29;20498;-80
2022/07/30 11:10:40;;;;;;;0.60;0.60;;;25.40;59.50;;;;;;4825100;29;20031;-79
2022/07/30 11:13:07;;;;;;;1.02;0.70;;;25.50;59.30;;;;;;4823530;29;20047;-78
2022/07/30 11:15:51;;;;;;;0.50;0.50;;;25.40;59.20;;;;;;4809098;29;20043;-78
2022/07/30 11:18:17;;;;;;;0.75;0.60;;;25.40;59.20;;;;;;4821591;29;20039;-78
2022/07/30 11:21:14;;;;;;;0.63;0.60;;;25.30;59.40;;;;;;4810088;29;20103;-79
2022/07/30 11:23:41;;;;;;;0.65;0.65;;;25.40;59.30;;;;;;4828805;29;20043;-79
2022/07/30 11:26:08;;;;;;;0.70;0.70;;;25.50;59.30;;;;;;4814225;29;20050;-79
2022/07/30 11:28:36;;;;;;;0.60;0.60;;;25.60;59.20;;;;;;4806633;29;20050;-79
2022/07/30 11:31:02;;;;;;;0.60;0.60;;;25.60;59.00;;;;;;4816492;29;20043;-78
2022/07/30 11:33:28;;;;;;;0.70;0.70;;;25.60;58.90;;;;;;4834213;29;20071;-78
2022/07/30 11:36:09;;;;;;;0.68;0.60;;;25.70;59.00;;;;;;4809793;29;20506;-79
2022/07/30 11:39:01;;;;;;;0.70;0.70;;;25.70;58.80;;;;;;4828856;29;20099;-77
2022/07/30 11:41:27;;;;;;;0.65;0.52;;;25.70;58.70;;;;;;4832282;29;20055;-78
2022/07/30 11:44:26;;;;;;;0.65;0.45;;;25.70;58.70;;;;;;4834808;29;20046;-79
2022/07/30 11:46:53;;;;;;;0.50;0.50;;;25.70;58.80;;;;;;4835233;29;20046;-78
2022/07/30 11:49:19;;;;;;;0.80;0.80;;;25.80;58.90;;;;;;4832658;29;20059;-78
2022/07/30 11:51:46;;;;;;;0.70;0.70;;;25.80;58.70;;;;;;4830918;29;20030;-78
2022/07/30 11:54:12;;;;;;;0.80;0.75;;;25.70;58.70;;;;;;4818446;29;20064;-78
2022/07/30 11:56:56;;;;;;;0.60;0.60;;;25.60;58.80;;;;;;4828318;29;20061;-79
2022/07/30 11:59:22;;;;;;;0.73;0.73;;;25.50;59.00;;;;;;4798194;29;20073;-80
2022/07/30 12:01:50;;;;;;;0.60;0.60;;;25.50;59.00;;;;;;4826617;29;20070;-80
2022/07/30 12:04:16;;;;;;;0.88;0.80;;;25.50;58.90;;;;;;4826542;29;20038;-80
2022/07/30 12:06:44;;;;;;;0.85;0.70;;;25.60;58.80;;;;;;4809180;29;20493;-79
2022/07/30 12:09:10;;;;;;;1.17;0.80;;;25.80;58.50;;;;;;4812226;29;20129;-80
2022/07/30 12:11:36;;;;;;;0.60;0.60;;;25.90;58.20;;;;;;4810924;29;20515;-80
2022/07/30 12:14:03;;;;;;;1.02;0.65;;;26.10;58.00;;;;;;4825490;29;20038;-80
2022/07/30 12:16:32;;;;;;;0.57;0.50;;;26.10;57.90;;;;;;4811970;29;20482;-80
2022/07/30 12:19:03;;;;;;;1.00;0.70;;;26.20;57.70;;;;;;4826661;29;20066;-80
2022/07/30 12:21:29;;;;;;;0.50;0.50;;;26.30;57.50;;;;;;4808211;29;20049;-80
2022/07/30 12:23:56;;;;;;;0.50;0.50;;;26.30;57.50;;;;;;4830630;29;20053;-79
2022/07/30 12:26:24;;;;;;;0.60;0.60;;;26.40;57.50;;;;;;4832881;29;20048;-80
2022/07/30 12:28:50;;;;;;;0.60;0.60;;;26.50;57.20;;;;;;4827945;29;20076;-79
2022/07/30 12:31:17;;;;;;;1.38;0.60;;;26.50;57.20;;;;;;4813447;29;20428;-79
2022/07/30 12:33:43;;;;;;;1.02;0.50;;;26.40;56.80;;;;;;4813325;29;20053;-79
2022/07/30 12:36:09;;;;;;;0.85;0.63;;;26.40;56.90;;;;;;4811755;29;20042;-80
2022/07/30 12:38:44;;;;;;;0.57;0.57;;;26.40;56.80;;;;;;4828636;29;20140;-80
2022/07/30 12:41:10;;;;;;;0.65;0.65;;;26.40;56.50;;;;;;4826292;29;20070;-80
2022/07/30 12:43:51;;;;;;;0.63;0.60;;;26.40;56.50;;;;;;4808682;29;20046;-79
2022/07/30 12:46:20;;;;;;;0.50;0.50;;;26.40;56.60;;;;;;4824216;29;20035;-79
2022/07/30 12:48:49;;;;;;;0.88;0.52;;;26.40;56.50;;;;;;4794892;29;20912;-79
2022/07/30 12:51:15;;;;;;;0.60;0.57;;;26.40;56.40;;;;;;4825019;29;20038;-79
2022/07/30 12:53:41;;;;;;;0.40;0.40;;;26.50;56.60;;;;;;4830791;29;20121;-79
2022/07/30 12:56:17;;;;;;;0.60;0.60;;;26.40;56.60;;;;;;4833992;29;20046;-79